Monday, February 18, 2019, 4:24 AM CST
Back to Local

KIKK, Kankakee, Greater Kankakee Airport

Location: Kankakee, IL, United States Lat: 41.071
Local Time: 4:24 AM CST (10:24 GMT) Lon: -87.846
Time Zone: US/Central Elev: 629 ft

Show me the last for .
Show Decoded

2019-02-18 03:35 METAR KIKK 180935Z AUTO 00000KT 10SM -SN OVC007 M03/M04 A3004 RMK AO2 T10301040
                 =
2019-02-18 03:15 METAR KIKK 180915Z AUTO 00000KT 10SM -SN BKN007 BKN020 OVC050 M03/M04 A3003 RMK
                 AO2 T10301040 =
2019-02-18 02:55 METAR KIKK 180855Z AUTO 00000KT 10SM -RA SCT007 BKN048 OVC050 M03/M04 A3002 RMK
                 AO2 T10301040 =
2019-02-18 02:35 METAR KIKK 180835Z AUTO 00000KT 10SM -SN BKN007 BKN030 OVC043 M03/M04 A3002 RMK
                 AO2 T10301040 =
2019-02-18 02:15 METAR KIKK 180815Z AUTO 00000KT 10SM -SN OVC007 M03/M04 A3001 RMK AO2 T10271039
                 =
2019-02-18 01:55 METAR KIKK 180755Z AUTO 00000KT 10SM -RA OVC007 M03/M04 A3001 RMK AO2 T10261037
                 =
2019-02-18 01:35 METAR KIKK 180735Z AUTO 00000KT 10SM -RA OVC007 M02/M03 A3000 RMK AO2 T10251035
                 =
2019-02-18 01:15 METAR KIKK 180715Z AUTO 00000KT 7SM UP OVC007 M02/M03 A2999 RMK AO2 T10231030 =
2019-02-18 00:55 METAR KIKK 180655Z AUTO 00000KT 10SM -RA OVC007 M02/M03 A2999 RMK AO2 T10221031
                 =
2019-02-18 00:35 METAR KIKK 180635Z AUTO 00000KT 10SM -RA OVC007 M02/M03 A2997 RMK AO2 T10221030
                 =
2019-02-18 00:15 METAR KIKK 180615Z AUTO 00000KT 10SM -SN OVC005 M02/M03 A2997 RMK AO2 T10231030
                 =
2019-02-17 23:55 METAR KIKK 180555Z AUTO 00000KT 10SM -RA SCT005 OVC019 M02/M03 A2995 RMK AO2
                 T10251030 11021 21025 410151041 =
2019-02-17 23:35 METAR KIKK 180535Z AUTO 00000KT 10SM -SN SCT006 SCT013 OVC021 M02/M03 A2994 RMK
                 AO2 T10231030 =
2019-02-17 23:15 METAR KIKK 180515Z AUTO 00000KT 10SM -RA BKN006 OVC013 M02/M03 A2994 RMK AO2
                 T10221028 =
2019-02-17 22:55 METAR KIKK 180455Z AUTO 00000KT 10SM -RA OVC006 M02/M03 A2993 RMK AO2 T10221028
                 =
2019-02-17 22:35 METAR KIKK 180435Z AUTO 00000KT 10SM -RA BKN006 OVC013 M02/M03 A2992 RMK AO2
                 T10211027 =
2019-02-17 22:15 METAR KIKK 180415Z AUTO 00000KT 10SM -RA SCT006 OVC013 M02/M03 A2992 RMK AO2
                 T10221028 =
2019-02-17 21:55 METAR KIKK 180355Z AUTO 00000KT 10SM -RA OVC013 M02/M03 A2992 RMK AO2 T10221030
                 =
2019-02-17 21:35 METAR KIKK 180335Z AUTO 00000KT 10SM -RA OVC013 M02/M03 A2991 RMK AO2 T10221030
                 =
2019-02-17 21:15 METAR KIKK 180315Z AUTO 00000KT 10SM OVC013 M02/M03 A2991 RMK AO2 T10231030 =
2019-02-17 20:55 METAR KIKK 180255Z AUTO 00000KT 10SM -RA OVC013 M02/M03 A2989 RMK AO2 T10231030
                 =
2019-02-17 20:35 METAR KIKK 180235Z AUTO 00000KT 10SM -RA SCT007 OVC011 M02/M03 A2989 RMK AO2
                 T10231030 =
2019-02-17 20:15 METAR KIKK 180215Z AUTO 00000KT 10SM -RA OVC007 M02/M03 A2989 RMK AO2 T10231030
                 =
2019-02-17 19:55 METAR KIKK 180155Z AUTO 00000KT 10SM -RA BKN005 BKN013 OVC023 M02/M03 A2988 RMK
                 AO2 T10231029 =
2019-02-17 19:35 METAR KIKK 180135Z AUTO 00000KT 10SM -RA SCT005 OVC023 M02/M03 A2988 RMK AO2
                 T10251030 =
2019-02-17 19:15 METAR KIKK 180115Z AUTO 00000KT 10SM -RA SCT005 OVC026 M02/M03 A2987 RMK AO2
                 T10231028 =
2019-02-17 18:55 METAR KIKK 180055Z AUTO 00000KT 10SM -RA SCT005 BKN017 OVC026 M02/M03 A2987 RMK
                 AO2 T10231030 =
2019-02-17 18:35 METAR KIKK 180035Z AUTO 00000KT 10SM -RA SCT005 OVC012 M02/M03 A2987 RMK AO2
                 T10221028 =
2019-02-17 18:15 METAR KIKK 180015Z AUTO 00000KT 10SM -RA OVC012 M02/M03 A2986 RMK AO2 T10221028
                 =
2019-02-17 17:55 METAR KIKK 172355Z AUTO 00000KT 10SM -RA BKN008 OVC014 M02/M03 A2986 RMK AO2
                 T10221030 11015 21022 =
2019-02-17 17:35 METAR KIKK 172335Z AUTO 00000KT 10SM -DZ OVC008 M02/M03 A2984 RMK AO2 T10221029
                 =
2019-02-17 17:15 METAR KIKK 172315Z AUTO 00000KT 10SM -DZ BKN006 OVC010 M02/M03 A2983 RMK AO2
                 T10211030 =
2019-02-17 16:55 METAR KIKK 172255Z AUTO 00000KT 10SM -DZ BKN006 OVC010 M02/M03 A2982 RMK AO2
                 T10201028 =
2019-02-17 16:35 METAR KIKK 172235Z AUTO 00000KT 10SM -DZ BKN006 OVC011 M02/M03 A2982 RMK AO2
                 T10201028 =
2019-02-17 16:15 METAR KIKK 172215Z AUTO 00000KT 10SM -DZ BKN011 OVC017 M02/M03 A2981 RMK AO2
                 T10191030 =
2019-02-17 15:55 METAR KIKK 172155Z AUTO 00000KT 10SM -DZ OVC015 M02/M03 A2980 RMK AO2 T10171033
                 =
2019-02-17 15:35 METAR KIKK 172135Z AUTO 00000KT 10SM OVC015 M02/M04 A2980 RMK AO2 T10181036 =
2019-02-17 15:15 METAR KIKK 172115Z AUTO 00000KT 10SM OVC013 M02/M04 A2980 RMK AO2 T10171039 =
2019-02-17 14:55 METAR KIKK 172055Z AUTO 00000KT 10SM OVC013 M02/M04 A2980 RMK AO2 T10161045 =
2019-02-17 14:35 METAR KIKK 172035Z AUTO 00000KT 10SM OVC013 M02/M04 A2979 RMK AO2 T10161045 =
2019-02-17 14:15 METAR KIKK 172015Z AUTO 00000KT 10SM OVC013 M02/M04 A2978 RMK AO2 T10161044 =
2019-02-17 13:55 METAR KIKK 171955Z AUTO 00000KT 10SM OVC013 M02/M04 A2979 RMK AO2 T10161045 =
2019-02-17 13:35 METAR KIKK 171935Z AUTO 00000KT 10SM OVC013 M01/M04 A2979 RMK AO2 T10151044 =
2019-02-17 13:15 METAR KIKK 171915Z AUTO 00000KT 10SM OVC013 M02/M04 A2980 RMK AO2 T10161044 =
2019-02-17 12:55 METAR KIKK 171855Z AUTO 00000KT 10SM -DZ OVC013 M01/M04 A2980 RMK AO2 T10151041
                 =
2019-02-17 12:35 METAR KIKK 171835Z AUTO 09003KT 10SM -DZ OVC011 M02/M04 A2980 RMK AO2 T10171044
                 =
2019-02-17 12:15 METAR KIKK 171815Z AUTO 00000KT 10SM -RA OVC011 M02/M04 A2981 RMK AO2 T10191043
                 =
2019-02-17 11:55 METAR KIKK 171755Z AUTO 09008KT 10SM -RA OVC011 M02/M04 A2983 RMK AO2 T10211045
                 11021 21040 =
2019-02-17 11:35 METAR KIKK 171735Z AUTO 09010KT 10SM -RA BKN013 OVC026 M02/M05 A2984 RMK AO2
                 T10221047 =
2019-02-17 11:15 METAR KIKK 171715Z AUTO 11011KT 10SM -RA BKN011 BKN024 OVC028 M02/M04 A2984 RMK
                 AO2 T10221045 =
2019-02-17 10:55 METAR KIKK 171655Z AUTO 10004KT 4SM UP BKN009 OVC026 M02/M04 A2984 RMK AO2
                 T10251045 =
2019-02-17 10:35 METAR KIKK 171635Z AUTO 10010KT 7SM -RA SCT009 BKN013 OVC022 M03/M05 A2985 RMK
                 AO2 T10281048 =
2019-02-17 10:15 METAR KIKK 171615Z AUTO 10009KT 4SM RA SCT009 SCT014 OVC022 M03/M05 A2985 RMK
                 AO2 T10301050 =
2019-02-17 09:55 METAR KIKK 171555Z AUTO 00000KT 1 3/4SM -SN SCT009 BKN012 OVC022 M03/M05 A2985
                 RMK AO2 T10301050 =
2019-02-17 09:35 METAR KIKK 171535Z AUTO 09011G14KT 2 1/2SM -SN SCT010 BKN024 OVC030 M03/M05
                 A2986 RMK AO2 T10311051 =
2019-02-17 09:15 METAR KIKK 171515Z AUTO 09013KT 3SM UP BKN013 OVC024 M03/M05 A2985 RMK AO2
                 T10321055 =
2019-02-17 08:55 METAR KIKK 171455Z AUTO 09011G16KT 5SM UP OVC013 M03/M05 A2986 RMK AO2 T10331055
                 =
2019-02-17 08:35 METAR KIKK 171435Z AUTO 09006KT 10SM -RA OVC013 M03/M06 A2986 RMK AO2 T10341056
                 =
2019-02-17 08:15 METAR KIKK 171415Z AUTO 09010KT 10SM RA BKN013 BKN026 OVC032 M04/M06 A2986 RMK
                 AO2 T10361060 =
2019-02-17 07:55 METAR KIKK 171355Z AUTO 09011G15KT 10SM -RA BKN015 BKN028 OVC035 M04/M06 A2986
                 RMK AO2 T10371062 =
2019-02-17 07:35 METAR KIKK 171335Z AUTO 10011KT 10SM BKN013 BKN036 OVC075 M04/M06 A2987 RMK AO2
                 T10371062 =
2019-02-17 07:15 METAR KIKK 171315Z AUTO 09013KT 10SM -RA SCT013 OVC075 M04/M06 A2987 RMK AO2
                 T10381061 =
2019-02-17 06:55 METAR KIKK 171255Z AUTO 09009KT 10SM -RA SCT015 BKN031 OVC075 M04/M06 A2987 RMK
                 AO2 T10401061 =
2019-02-17 06:35 METAR KIKK 171235Z AUTO 09011KT 10SM -RA BKN015 OVC031 M04/M06 A2987 RMK AO2
                 T10401063 =
2019-02-17 06:15 METAR KIKK 171215Z AUTO 09010KT 7SM -SN BKN017 OVC024 M04/M06 A2989 RMK AO2
                 T10401065 =
2019-02-17 05:55 METAR KIKK 171155Z AUTO 09009G15KT 10SM -SN OVC015 M04/M06 A2991 RMK AO2
                 T10371065 11036 21041 =
2019-02-17 05:35 METAR KIKK 171135Z AUTO 08005KT 10SM -RA OVC015 M04/M06 A2992 RMK AO2 T10361065
                 =
2019-02-17 05:15 METAR KIKK 171115Z AUTO 09012G15KT 10SM DZ OVC015 M04/M07 A2991 RMK AO2
                 T10371066 =
2019-02-17 04:55 METAR KIKK 171055Z AUTO 00000KT 10SM -RA OVC015 M04/M07 A2992 RMK AO2 T10361066
                 =
2019-02-17 04:35 METAR KIKK 171035Z AUTO 09013KT 10SM -RA OVC015 M04/M07 A2990 RMK AO2 T10361067
                 =

Support USWX by starting your Amazon purchase here.